createdAt,value
2023-04-21T00:00:50.234Z,100183.85
2023-04-21T00:04:38.531Z,100179.27
2023-04-21T00:08:28.547Z,100185.86
2023-04-21T00:12:17.486Z,100182.73
2023-04-21T00:16:06.889Z,100182.02
2023-04-21T00:19:54.708Z,100184.09
2023-04-21T00:23:42.883Z,100179.98
2023-04-21T00:27:32.447Z,100177.45
2023-04-21T00:31:20.269Z,100173.83
2023-04-21T00:35:08.443Z,100168.83
2023-04-21T00:39:10.107Z,100171.51
2023-04-21T00:42:57.930Z,100173.57
2023-04-21T00:46:31.022Z,100169.31
2023-04-21T00:50:11.705Z,100163.73
2023-04-21T00:53:56.009Z,100168.16
2023-04-21T00:57:13.169Z,100165.96
2023-04-21T01:00:50.217Z,100168.02
2023-04-21T01:04:28.216Z,100168.38
2023-04-21T01:08:54.898Z,100168.11
2023-04-21T01:12:42.678Z,100164.52
2023-04-21T01:16:30.926Z,100161.58
2023-04-21T01:20:18.762Z,100160.16
2023-04-21T01:24:06.728Z,100155.32
2023-04-21T01:27:54.509Z,100153.70
2023-04-21T01:31:42.392Z,100154.52
2023-04-21T01:35:32.525Z,100153.86
2023-04-21T01:39:23.558Z,100154.79
2023-04-21T01:43:16.050Z,100153.98
2023-04-21T01:47:05.962Z,100147.13
2023-04-21T01:50:53.898Z,100145.42
2023-04-21T01:54:41.686Z,100143.10
2023-04-21T01:58:29.619Z,100141.55
2023-04-21T02:02:17.526Z,100133.69
2023-04-21T02:06:05.603Z,100129.75
2023-04-21T02:09:54.362Z,100128.22
2023-04-21T02:13:42.485Z,100127.45
2023-04-21T02:17:30.342Z,100117.50
2023-04-21T02:21:18.253Z,100119.21
2023-04-21T02:25:06.231Z,100117.21
2023-04-21T02:28:36.654Z,100117.58
2023-04-21T02:32:27.764Z,100116.52
2023-04-21T02:36:15.595Z,100114.93
2023-04-21T02:40:03.454Z,100108.77
2023-04-21T02:43:51.282Z,100104.08
2023-04-21T02:47:47.884Z,100100.33
2023-04-21T02:51:36.978Z,100101.29
2023-04-21T02:55:24.860Z,100103.02
2023-04-21T02:59:12.668Z,100104.95
2023-04-21T03:03:00.707Z,100104.09
2023-04-21T03:06:55.387Z,100105.14
2023-04-21T03:10:43.621Z,100101.08
2023-04-21T03:14:37.354Z,100098.59
2023-04-21T03:18:25.669Z,100096.05
2023-04-21T03:22:18.543Z,100094.55
2023-04-21T03:26:06.549Z,100100.23
2023-04-21T03:29:54.393Z,100098.91
2023-04-21T03:33:52.125Z,100101.46
2023-04-21T03:37:40.076Z,100099.92
2023-04-21T03:41:27.917Z,100103.37
2023-04-21T03:45:19.320Z,100103.72
2023-04-21T03:49:07.119Z,100102.48
2023-04-21T03:52:57.169Z,100098.36
2023-04-21T03:56:37.644Z,100094.76
2023-04-21T04:00:33.220Z,100091.70
2023-04-21T04:04:23.416Z,100090.17
2023-04-21T04:08:11.500Z,100087.67
2023-04-21T04:10:51.750Z,100090.04
2023-04-21T04:14:39.998Z,100089.44
2023-04-21T04:18:27.844Z,100092.05
2023-04-21T04:22:18.821Z,100092.56
2023-04-21T04:26:06.850Z,100096.17
2023-04-21T04:30:00.221Z,100096.80
2023-04-21T04:33:48.128Z,100099.54
2023-04-21T04:36:56.760Z,100099.45
2023-04-21T04:40:44.769Z,100104.63
2023-04-21T04:44:07.232Z,100107.42
2023-04-21T04:47:25.292Z,100105.27
2023-04-21T04:51:06.153Z,100107.75
2023-04-21T04:54:43.952Z,100109.79
2023-04-21T04:57:57.990Z,100110.52
2023-04-21T05:01:50.744Z,100102.60
2023-04-21T05:05:22.795Z,100103.62
2023-04-21T05:09:10.725Z,100106.01
2023-04-21T05:12:58.492Z,100107.20
2023-04-21T05:16:48.064Z,100115.63
2023-04-21T05:20:36.012Z,100114.41
2023-04-21T05:24:23.811Z,100115.44
2023-04-21T05:28:11.810Z,100115.98
2023-04-21T05:31:59.657Z,100122.48
2023-04-21T05:35:47.770Z,100124.80
2023-04-21T05:39:35.960Z,100121.37
2023-04-21T05:43:23.804Z,100115.02
2023-04-21T05:47:11.721Z,100109.34
2023-04-21T05:50:59.599Z,100109.68
2023-04-21T05:54:47.567Z,100108.45
2023-04-21T05:58:35.814Z,100108.73
2023-04-21T06:02:23.843Z,100114.60
2023-04-21T06:06:11.840Z,100114.35
2023-04-21T06:09:45.477Z,100114.08
2023-04-21T06:12:48.774Z,100113.23
2023-04-21T06:16:09.359Z,100112.64
2023-04-21T06:19:03.409Z,100117.68
2023-04-21T06:22:40.457Z,100116.23
2023-04-21T06:26:18.473Z,100111.48
2023-04-21T06:30:06.231Z,100112.09
2023-04-21T06:33:23.190Z,100111.02
2023-04-21T06:36:53.592Z,100109.22
2023-04-21T06:40:16.756Z,100108.50
2023-04-21T06:43:37.171Z,100107.98
2023-04-21T06:46:51.231Z,100109.54
2023-04-21T06:50:03.743Z,100113.66
2023-04-21T06:53:23.459Z,100117.87
2023-04-21T06:56:31.146Z,100111.38
2023-04-21T06:59:59.636Z,100112.56
2023-04-21T07:03:19.060Z,100107.02
2023-04-21T07:06:54.616Z,100104.88
2023-04-21T07:10:32.255Z,100103.33
2023-04-21T07:13:47.216Z,100101.33
2023-04-21T07:17:02.092Z,100100.02
2023-04-21T07:20:38.169Z,100103.89
2023-04-21T07:24:16.496Z,100098.23
2023-04-21T07:28:04.557Z,100102.79
2023-04-21T07:31:52.309Z,100111.28
2023-04-21T07:35:40.549Z,100118.15
2023-04-21T07:39:28.494Z,100116.86
2023-04-21T07:43:16.261Z,100117.02
2023-04-21T07:47:04.063Z,100113.27
2023-04-21T07:50:52.773Z,100112.48
2023-04-21T07:54:40.558Z,100107.98
2023-04-21T07:58:29.274Z,100104.17
2023-04-21T08:02:01.892Z,100109.96
2023-04-21T08:05:43.460Z,100114.14
2023-04-21T08:09:31.409Z,100118.30
2023-04-21T08:13:19.496Z,100120.91
2023-04-21T08:17:00.620Z,100126.23
2023-04-21T08:20:39.416Z,100129.55
2023-04-21T08:24:33.262Z,100128.98
2023-04-21T08:28:20.394Z,100130.55
2023-04-21T08:32:08.385Z,100125.47
2023-04-21T08:39:55.298Z,100131.16
2023-04-21T08:43:35.688Z,100131.91
2023-04-21T08:47:24.377Z,100129.46
2023-04-21T08:51:14.298Z,100136.48
2023-04-21T08:54:55.251Z,100127.16
2023-04-21T08:58:45.719Z,100135.75
2023-04-21T09:02:46.207Z,100130.99
2023-04-21T09:06:37.114Z,100137.95
2023-04-21T09:10:31.343Z,100141.04
2023-04-21T09:13:59.245Z,100146.83
2023-04-21T09:17:47.235Z,100148.85
2023-04-21T09:21:50.351Z,100148.34
2023-04-21T09:25:38.313Z,100156.41
2023-04-21T09:29:27.568Z,100163.17
2023-04-21T09:33:29.074Z,100170.31
2023-04-21T09:37:19.186Z,100171.98
2023-04-21T09:41:12.274Z,100170.91
2023-04-21T09:48:57.418Z,100165.32
2023-04-21T09:52:45.228Z,100164.20
2023-04-21T09:56:33.313Z,100166.31
2023-04-21T10:00:23.222Z,100171.65
2023-04-21T10:04:11.285Z,100175.38
2023-04-21T10:08:00.384Z,100185.03
2023-04-21T10:11:50.319Z,100186.63
2023-04-21T10:15:39.484Z,100194.13
2023-04-21T10:19:27.369Z,100197.09
2023-04-21T10:23:15.247Z,100194.83
2023-04-21T10:27:03.080Z,100201.47
2023-04-21T10:31:01.807Z,100197.30
2023-04-21T10:35:12.631Z,100193.23
2023-04-21T10:39:19.105Z,100187.55
2023-04-21T10:43:15.959Z,100172.02
2023-04-21T10:47:17.833Z,100179.40
2023-04-21T10:51:14.809Z,100176.58
2023-04-21T10:55:07.247Z,100180.48
2023-04-21T10:58:55.396Z,100185.87
2023-04-21T11:02:53.853Z,100195.67
2023-04-21T11:06:41.808Z,100191.86
2023-04-21T11:10:30.761Z,100188.92
2023-04-21T11:14:22.664Z,100189.40
2023-04-21T11:18:10.955Z,100182.36
2023-04-21T11:21:58.847Z,100169.59
2023-04-21T11:25:48.871Z,100170.16
2023-04-21T11:29:41.724Z,100161.64
2023-04-21T11:33:35.719Z,100154.60
2023-04-21T11:37:23.544Z,100155.27
2023-04-21T11:41:11.553Z,100145.19
2023-04-21T11:45:14.465Z,100143.20
2023-04-21T11:49:17.533Z,100144.35
2023-04-21T11:53:05.331Z,100145.07
2023-04-21T11:56:53.130Z,100140.59
2023-04-21T12:00:41.052Z,100136.13
2023-04-21T12:04:35.144Z,100140.84
2023-04-21T12:08:23.208Z,100133.56
2023-04-21T12:12:10.882Z,100124.90
2023-04-21T12:15:58.750Z,100120.10
2023-04-21T12:19:46.946Z,100114.61
2023-04-21T12:23:37.559Z,100115.01
2023-04-21T12:27:17.880Z,100112.80
2023-04-21T12:31:05.893Z,100109.08
2023-04-21T12:34:53.881Z,100104.58
2023-04-21T12:38:41.889Z,100104.54
2023-04-21T12:42:29.814Z,100103.48
2023-04-21T12:46:19.108Z,100101.27
2023-04-21T12:50:06.903Z,100101.35
2023-04-21T12:54:00.761Z,100104.22
2023-04-21T12:57:48.627Z,100099.52
2023-04-21T13:01:37.922Z,100096.95
2023-04-21T13:05:16.851Z,100099.27
2023-04-21T13:09:02.388Z,100096.73
2023-04-21T13:12:49.118Z,100091.33
2023-04-21T13:16:37.231Z,100084.79
2023-04-21T13:20:25.163Z,100082.61
2023-04-21T13:24:21.572Z,100076.19
2023-04-21T13:28:15.167Z,100074.52
2023-04-21T13:32:02.948Z,100075.32
2023-04-21T13:35:51.409Z,100076.30
2023-04-21T13:39:39.285Z,100077.50
2023-04-21T13:43:29.817Z,100075.46
2023-04-21T13:47:16.629Z,100070.97
2023-04-21T13:51:04.570Z,100071.11
2023-04-21T13:54:53.530Z,100080.20
2023-04-21T13:58:41.423Z,100077.91
2023-04-21T14:02:29.868Z,100083.23
2023-04-21T14:06:11.036Z,100074.23
2023-04-21T14:09:59.093Z,100076.14
2023-04-21T14:13:59.900Z,100080.00
2023-04-21T14:17:52.905Z,100076.23
2023-04-21T14:21:42.323Z,100076.20
2023-04-21T14:25:30.254Z,100076.65
2023-04-21T14:29:11.283Z,100075.60
2023-04-21T14:32:59.117Z,100082.36
2023-04-21T14:36:38.524Z,100075.77
2023-04-21T14:40:26.434Z,100072.45
2023-04-21T14:44:22.746Z,100077.63
2023-04-21T14:48:10.728Z,100075.09
2023-04-21T14:51:59.527Z,100080.38
2023-04-21T14:55:47.505Z,100077.99
2023-04-21T14:59:26.040Z,100076.27
2023-04-21T15:03:14.003Z,100068.44
2023-04-21T15:07:02.089Z,100064.73
2023-04-21T15:10:51.380Z,100067.96
2023-04-21T15:14:39.451Z,100082.35
2023-04-21T15:18:27.198Z,100076.98
2023-04-21T15:22:15.037Z,100076.89
2023-04-21T15:26:02.901Z,100070.71
2023-04-21T15:29:50.887Z,100057.21
2023-04-21T15:33:38.986Z,100064.23
2023-04-21T15:37:26.798Z,100064.14
2023-04-21T15:41:14.676Z,100049.48
2023-04-21T15:44:54.588Z,100055.30
2023-04-21T15:48:42.636Z,100077.70
2023-04-21T15:52:30.575Z,100086.44
2023-04-21T15:56:12.119Z,100081.80
2023-04-21T15:59:51.837Z,100080.63
2023-04-21T16:03:40.698Z,100077.11
2023-04-21T16:07:28.737Z,100076.29
2023-04-21T16:11:17.210Z,100068.09
2023-04-21T16:14:55.681Z,100069.59
2023-04-21T16:18:47.422Z,100063.83
2023-04-21T16:22:35.397Z,100062.00
2023-04-21T16:25:32.452Z,100045.83
2023-04-21T16:29:00.414Z,100043.91
2023-04-21T16:32:39.890Z,100044.61
2023-04-21T16:36:24.900Z,100046.44
2023-04-21T16:40:12.743Z,100051.92
2023-04-21T16:44:00.583Z,100050.59
2023-04-21T16:47:48.901Z,100054.55
2023-04-21T16:51:37.129Z,100061.95
2023-04-21T16:55:25.260Z,100060.23
2023-04-21T16:59:13.132Z,100070.50
2023-04-21T17:03:01.183Z,100081.11
2023-04-21T17:06:49.189Z,100087.45
2023-04-21T17:10:29.781Z,100091.10
2023-04-21T17:13:38.690Z,100098.06
2023-04-21T17:17:11.486Z,100097.96
2023-04-21T17:21:01.992Z,100104.27
2023-04-21T17:24:53.831Z,100102.71
2023-04-21T17:28:42.464Z,100092.11
2023-04-21T17:32:19.606Z,100089.71
2023-04-21T17:36:07.279Z,100089.13
2023-04-21T17:39:55.114Z,100095.45
2023-04-21T17:43:42.943Z,100102.27
2023-04-21T17:47:30.630Z,100109.34
2023-04-21T17:51:11.258Z,100116.38
2023-04-21T17:54:59.074Z,100117.80
2023-04-21T17:58:47.010Z,100120.74
2023-04-21T18:02:33.262Z,100112.70
2023-04-21T18:06:22.204Z,100108.54
2023-04-21T18:09:46.542Z,100105.39
2023-04-21T18:13:34.451Z,100102.46
2023-04-21T18:16:58.420Z,100087.62
2023-04-21T18:20:46.717Z,100081.42
2023-04-21T18:24:34.806Z,100089.70
2023-04-21T18:28:22.749Z,100082.95
2023-04-21T18:32:03.748Z,100084.23
2023-04-21T18:35:51.813Z,100083.78
2023-04-21T18:39:39.737Z,100078.27
2023-04-21T18:43:27.670Z,100076.27
2023-04-21T18:47:15.785Z,100075.98
2023-04-21T18:51:04.103Z,100072.58
2023-04-21T18:54:53.084Z,100071.77
2023-04-21T18:58:25.628Z,100066.80
2023-04-21T19:01:58.839Z,100065.27
2023-04-21T19:05:46.711Z,100067.58
2023-04-21T19:08:42.837Z,100062.95
2023-04-21T19:11:34.123Z,100064.25
2023-04-21T19:14:21.956Z,100059.05
2023-04-21T19:17:52.162Z,100052.75
2023-04-21T19:21:40.165Z,100045.11
2023-04-21T19:25:07.110Z,100039.57
2023-04-21T19:28:49.164Z,100046.10
2023-04-21T19:32:27.078Z,100047.75
2023-04-21T19:35:44.812Z,100048.23
2023-04-21T19:39:15.219Z,100045.63
2023-04-21T19:42:45.988Z,100032.75
2023-04-21T19:46:09.114Z,100013.40
2023-04-21T19:49:56.947Z,100011.17
2023-04-21T19:53:35.692Z,100008.52
2023-04-21T19:56:40.178Z,100014.52
2023-04-21T19:59:41.234Z,100015.68
2023-04-21T20:02:31.292Z,100013.94
2023-04-21T20:06:21.504Z,100020.81
2023-04-21T20:10:10.137Z,100020.58
2023-04-21T20:13:57.993Z,100022.85
2023-04-21T20:17:51.455Z,100023.10
2023-04-21T20:21:39.257Z,100020.89
2023-04-21T20:25:32.971Z,100025.87
2023-04-21T20:29:11.197Z,100029.57
2023-04-21T20:32:59.085Z,100025.66
2023-04-21T20:36:46.927Z,100021.36
2023-04-21T20:40:36.107Z,100021.84
2023-04-21T20:44:24.652Z,100020.30
2023-04-21T20:48:12.429Z,100019.67
2023-04-21T20:52:00.198Z,100016.64
2023-04-21T20:55:48.390Z,100015.77
2023-04-21T20:59:37.741Z,100013.15
2023-04-21T21:03:26.228Z,100009.40
2023-04-21T21:07:14.177Z,100005.36
2023-04-21T21:11:02.023Z,100003.28
2023-04-21T21:14:43.158Z,100006.22
2023-04-21T21:18:31.241Z,99997.36
2023-04-21T21:21:59.041Z,100000.46
2023-04-21T21:25:47.091Z,100004.23
2023-04-21T21:29:35.034Z,99997.25
2023-04-21T21:33:22.974Z,100002.17
2023-04-21T21:37:12.084Z,99998.80
2023-04-21T21:40:51.310Z,100000.98
2023-04-21T21:44:39.142Z,99996.55
2023-04-21T21:48:27.026Z,99998.36
2023-04-21T21:52:14.804Z,100001.73
2023-04-21T21:56:02.589Z,100001.93
2023-04-21T21:59:49.244Z,100002.25
2023-04-21T22:03:33.526Z,99999.55
2023-04-21T22:07:21.437Z,100002.98
2023-04-21T22:11:29.128Z,100005.95
2023-04-21T22:15:16.880Z,100000.10
2023-04-21T22:19:04.648Z,100001.41
2023-04-21T22:22:54.477Z,100000.78
2023-04-21T22:26:42.221Z,99998.83
2023-04-21T22:30:30.096Z,99999.84
2023-04-21T22:34:11.729Z,99998.24
2023-04-21T22:37:59.599Z,99996.00
2023-04-21T22:41:26.756Z,99995.39
2023-04-21T22:44:59.838Z,99999.99
2023-04-21T22:48:49.045Z,99999.88
2023-04-21T22:52:38.258Z,99997.34
2023-04-21T22:56:24.925Z,99995.55
2023-04-21T23:00:12.823Z,99994.27
2023-04-21T23:04:00.819Z,99988.92
2023-04-21T23:07:48.761Z,99986.50
2023-04-21T23:11:36.767Z,99987.40
2023-04-21T23:15:24.680Z,99978.17
2023-04-21T23:19:12.528Z,99977.05
2023-04-21T23:23:00.270Z,99979.59
2023-04-21T23:26:48.077Z,99982.16
2023-04-21T23:30:35.833Z,99979.55
2023-04-21T23:34:25.055Z,99983.89
2023-04-21T23:38:12.813Z,99983.88
2023-04-21T23:42:00.668Z,99979.99
2023-04-21T23:45:47.498Z,99978.86
2023-04-21T23:49:36.452Z,99982.14
2023-04-21T23:53:24.673Z,99977.77
2023-04-21T23:57:12.561Z,99977.21
